sensor_id;sensor_type;location;lat;lon;timestamp;pressure;altitude;pressure_sealevel;temperature;humidity
54816;BME280;40715;55.752;37.884;2023-12-07T00:01:13;100802.22;;;27.64;29.45
54816;BME280;40715;55.752;37.884;2023-12-07T00:03:40;100805.06;;;27.63;29.46
54816;BME280;40715;55.752;37.884;2023-12-07T00:06:07;100796.19;;;27.61;29.48
54816;BME280;40715;55.752;37.884;2023-12-07T00:08:35;100801.69;;;27.59;29.52
54816;BME280;40715;55.752;37.884;2023-12-07T00:11:02;100806.38;;;27.57;29.50
54816;BME280;40715;55.752;37.884;2023-12-07T00:13:28;100805.53;;;27.57;29.47
54816;BME280;40715;55.752;37.884;2023-12-07T00:15:55;100800.34;;;27.53;29.46
54816;BME280;40715;55.752;37.884;2023-12-07T00:18:22;100801.31;;;27.52;29.41
54816;BME280;40715;55.752;37.884;2023-12-07T00:20:49;100802.41;;;27.50;29.35
54816;BME280;40715;55.752;37.884;2023-12-07T00:23:16;100798.84;;;27.49;29.19
54816;BME280;40715;55.752;37.884;2023-12-07T00:25:43;100797.97;;;27.49;29.30
54816;BME280;40715;55.752;37.884;2023-12-07T00:28:12;100805.84;;;27.52;29.28
54816;BME280;40715;55.752;37.884;2023-12-07T00:30:41;100805.53;;;27.57;29.04
54816;BME280;40715;55.752;37.884;2023-12-07T00:33:09;100808.97;;;27.59;29.18
54816;BME280;40715;55.752;37.884;2023-12-07T00:35:38;100804.19;;;27.62;28.92
54816;BME280;40715;55.752;37.884;2023-12-07T00:38:05;100812.94;;;27.66;28.89
54816;BME280;40715;55.752;37.884;2023-12-07T00:40:35;100810.09;;;27.67;28.77
54816;BME280;40715;55.752;37.884;2023-12-07T00:43:06;100813.59;;;27.69;28.58
54816;BME280;40715;55.752;37.884;2023-12-07T00:45:34;100812.69;;;27.69;28.82
54816;BME280;40715;55.752;37.884;2023-12-07T00:48:01;100820.63;;;27.72;28.66
54816;BME280;40715;55.752;37.884;2023-12-07T00:50:27;100818.13;;;27.69;28.46
54816;BME280;40715;55.752;37.884;2023-12-07T00:52:54;100820.09;;;27.67;28.54
54816;BME280;40715;55.752;37.884;2023-12-07T00:55:21;100816.63;;;27.65;28.41
54816;BME280;40715;55.752;37.884;2023-12-07T00:57:48;100816.72;;;27.63;28.40
54816;BME280;40715;55.752;37.884;2023-12-07T01:00:15;100819.56;;;27.62;28.44
54816;BME280;40715;55.752;37.884;2023-12-07T01:02:43;100818.06;;;27.58;28.32
54816;BME280;40715;55.752;37.884;2023-12-07T01:05:09;100822.97;;;27.52;28.39
54816;BME280;40715;55.752;37.884;2023-12-07T01:07:37;100813.34;;;27.48;28.34
54816;BME280;40715;55.752;37.884;2023-12-07T01:10:04;100811.97;;;27.43;28.50
54816;BME280;40715;55.752;37.884;2023-12-07T01:12:32;100818.56;;;27.38;28.42
54816;BME280;40715;55.752;37.884;2023-12-07T01:14:59;100819.88;;;27.33;28.45
54816;BME280;40715;55.752;37.884;2023-12-07T01:17:26;100823.16;;;27.25;28.44
54816;BME280;40715;55.752;37.884;2023-12-07T01:19:53;100821.75;;;27.19;28.33
54816;BME280;40715;55.752;37.884;2023-12-07T01:22:20;100825.78;;;27.14;28.47
54816;BME280;40715;55.752;37.884;2023-12-07T01:24:48;100826.00;;;27.11;28.48
54816;BME280;40715;55.752;37.884;2023-12-07T01:27:15;100828.16;;;27.06;28.38
54816;BME280;40715;55.752;37.884;2023-12-07T01:29:42;100829.47;;;27.00;28.47
54816;BME280;40715;55.752;37.884;2023-12-07T01:32:09;100826.22;;;26.95;28.41
54816;BME280;40715;55.752;37.884;2023-12-07T01:34:36;100825.72;;;26.90;28.52
54816;BME280;40715;55.752;37.884;2023-12-07T01:37:03;100832.19;;;26.87;28.35
54816;BME280;40715;55.752;37.884;2023-12-07T01:39:30;100824.44;;;26.82;28.47
54816;BME280;40715;55.752;37.884;2023-12-07T01:41:57;100838.78;;;26.83;28.37
54816;BME280;40715;55.752;37.884;2023-12-07T01:44:24;100835.25;;;26.82;28.26
54816;BME280;40715;55.752;37.884;2023-12-07T01:46:52;100842.34;;;26.83;28.44
54816;BME280;40715;55.752;37.884;2023-12-07T01:49:19;100842.25;;;26.85;28.19
54816;BME280;40715;55.752;37.884;2023-12-07T01:51:46;100845.38;;;26.92;28.20
54816;BME280;40715;55.752;37.884;2023-12-07T01:54:13;100846.16;;;26.94;28.14
54816;BME280;40715;55.752;37.884;2023-12-07T01:56:40;100844.84;;;26.99;28.05
54816;BME280;40715;55.752;37.884;2023-12-07T01:59:10;100853.47;;;27.04;28.05
54816;BME280;40715;55.752;37.884;2023-12-07T02:01:38;100860.16;;;27.12;27.66
54816;BME280;40715;55.752;37.884;2023-12-07T02:04:23;100855.81;;;27.22;27.69
54816;BME280;40715;55.752;37.884;2023-12-07T02:06:52;100858.31;;;27.25;27.69
54816;BME280;40715;55.752;37.884;2023-12-07T02:09:20;100862.19;;;27.34;27.62
54816;BME280;40715;55.752;37.884;2023-12-07T02:11:49;100860.56;;;27.31;27.46
54816;BME280;40715;55.752;37.884;2023-12-07T02:14:34;100862.72;;;27.39;27.37
54816;BME280;40715;55.752;37.884;2023-12-07T02:17:16;100868.13;;;27.39;27.60
54816;BME280;40715;55.752;37.884;2023-12-07T02:20:09;100872.03;;;27.48;27.38
54816;BME280;40715;55.752;37.884;2023-12-07T02:22:49;100870.53;;;27.44;27.33
54816;BME280;40715;55.752;37.884;2023-12-07T02:25:24;100870.97;;;27.37;27.35
54816;BME280;40715;55.752;37.884;2023-12-07T02:27:51;100880.19;;;27.35;27.13
54816;BME280;40715;55.752;37.884;2023-12-07T02:30:18;100871.28;;;27.33;27.92
54816;BME280;40715;55.752;37.884;2023-12-07T02:32:45;100879.38;;;27.33;28.62
54816;BME280;40715;55.752;37.884;2023-12-07T02:35:13;100880.34;;;27.32;29.23
54816;BME280;40715;55.752;37.884;2023-12-07T02:37:44;100883.06;;;27.32;29.62
54816;BME280;40715;55.752;37.884;2023-12-07T02:40:12;100880.47;;;27.30;30.09
54816;BME280;40715;55.752;37.884;2023-12-07T02:42:42;100878.84;;;27.28;30.31
54816;BME280;40715;55.752;37.884;2023-12-07T02:45:10;100876.16;;;27.28;30.51
54816;BME280;40715;55.752;37.884;2023-12-07T02:47:38;100874.31;;;27.28;30.68
54816;BME280;40715;55.752;37.884;2023-12-07T02:50:07;100878.97;;;27.26;31.00
54816;BME280;40715;55.752;37.884;2023-12-07T02:52:34;100885.50;;;27.24;31.00
54816;BME280;40715;55.752;37.884;2023-12-07T02:55:02;100874.88;;;27.20;30.91
54816;BME280;40715;55.752;37.884;2023-12-07T02:57:30;100882.47;;;27.15;31.08
54816;BME280;40715;55.752;37.884;2023-12-07T02:59:57;100876.28;;;27.13;31.12
54816;BME280;40715;55.752;37.884;2023-12-07T03:02:24;100882.88;;;27.09;30.88
54816;BME280;40715;55.752;37.884;2023-12-07T03:04:51;100882.03;;;27.09;31.07
54816;BME280;40715;55.752;37.884;2023-12-07T03:07:18;100888.53;;;27.06;31.05
54816;BME280;40715;55.752;37.884;2023-12-07T03:09:45;100889.41;;;27.07;30.96
54816;BME280;40715;55.752;37.884;2023-12-07T03:12:12;100891.34;;;27.04;30.72
54816;BME280;40715;55.752;37.884;2023-12-07T03:14:42;100895.13;;;27.02;30.47
54816;BME280;40715;55.752;37.884;2023-12-07T03:17:09;100906.94;;;27.01;30.11
54816;BME280;40715;55.752;37.884;2023-12-07T03:19:40;100904.34;;;26.99;30.06
54816;BME280;40715;55.752;37.884;2023-12-07T03:22:07;100906.06;;;27.00;29.64
54816;BME280;40715;55.752;37.884;2023-12-07T03:24:36;100911.56;;;26.99;29.47
54816;BME280;40715;55.752;37.884;2023-12-07T03:27:03;100908.88;;;26.99;28.69
54816;BME280;40715;55.752;37.884;2023-12-07T03:29:31;100909.75;;;26.99;28.14
54816;BME280;40715;55.752;37.884;2023-12-07T03:31:58;100911.03;;;27.07;27.44
54816;BME280;40715;55.752;37.884;2023-12-07T03:34:26;100913.31;;;27.13;26.96
54816;BME280;40715;55.752;37.884;2023-12-07T03:36:53;100917.94;;;27.24;26.56
54816;BME280;40715;55.752;37.884;2023-12-07T03:39:20;100927.47;;;27.29;26.20
54816;BME280;40715;55.752;37.884;2023-12-07T03:41:49;100930.38;;;27.39;25.75
54816;BME280;40715;55.752;37.884;2023-12-07T03:44:16;100918.34;;;27.43;25.95
54816;BME280;40715;55.752;37.884;2023-12-07T03:46:43;100923.34;;;27.49;25.86
54816;BME280;40715;55.752;37.884;2023-12-07T03:49:10;100926.69;;;27.53;25.80
54816;BME280;40715;55.752;37.884;2023-12-07T03:51:38;100934.69;;;27.54;26.18
54816;BME280;40715;55.752;37.884;2023-12-07T03:54:05;100931.00;;;27.55;26.19
54816;BME280;40715;55.752;37.884;2023-12-07T03:56:33;100927.22;;;27.58;26.32
54816;BME280;40715;55.752;37.884;2023-12-07T03:59:00;100930.66;;;27.60;26.43
54816;BME280;40715;55.752;37.884;2023-12-07T04:01:28;100941.59;;;27.59;26.26
54816;BME280;40715;55.752;37.884;2023-12-07T04:03:56;100933.47;;;27.59;26.55
54816;BME280;40715;55.752;37.884;2023-12-07T04:06:24;100935.84;;;27.63;26.52
54816;BME280;40715;55.752;37.884;2023-12-07T04:08:54;100944.31;;;27.59;26.79
54816;BME280;40715;55.752;37.884;2023-12-07T04:11:21;100934.25;;;27.61;26.81
54816;BME280;40715;55.752;37.884;2023-12-07T04:13:48;100937.03;;;27.59;26.71
54816;BME280;40715;55.752;37.884;2023-12-07T04:16:15;100945.28;;;27.58;27.02
54816;BME280;40715;55.752;37.884;2023-12-07T04:18:43;100945.28;;;27.58;26.82
54816;BME280;40715;55.752;37.884;2023-12-07T04:21:10;100941.59;;;27.59;26.86
54816;BME280;40715;55.752;37.884;2023-12-07T04:23:37;100950.69;;;27.58;26.81
54816;BME280;40715;55.752;37.884;2023-12-07T04:26:04;100951.56;;;27.58;26.98
54816;BME280;40715;55.752;37.884;2023-12-07T04:28:31;100949.00;;;27.57;26.99
54816;BME280;40715;55.752;37.884;2023-12-07T04:30:59;100949.94;;;27.55;26.99
54816;BME280;40715;55.752;37.884;2023-12-07T04:33:26;100948.22;;;27.54;26.94
54816;BME280;40715;55.752;37.884;2023-12-07T04:35:53;100948.09;;;27.56;26.83
54816;BME280;40715;55.752;37.884;2023-12-07T04:38:20;100943.88;;;27.52;26.75
54816;BME280;40715;55.752;37.884;2023-12-07T04:40:47;100953.97;;;27.50;26.69
54816;BME280;40715;55.752;37.884;2023-12-07T04:43:15;100959.63;;;27.47;26.82
54816;BME280;40715;55.752;37.884;2023-12-07T04:45:42;100959.72;;;27.45;26.77
54816;BME280;40715;55.752;37.884;2023-12-07T04:48:09;100962.44;;;27.45;26.44
54816;BME280;40715;55.752;37.884;2023-12-07T04:50:36;100960.03;;;27.41;26.64
54816;BME280;40715;55.752;37.884;2023-12-07T04:53:03;100962.97;;;27.37;26.61
54816;BME280;40715;55.752;37.884;2023-12-07T04:55:29;100969.50;;;27.35;26.81
54816;BME280;40715;55.752;37.884;2023-12-07T04:57:56;100965.25;;;27.31;26.83
54816;BME280;40715;55.752;37.884;2023-12-07T05:00:24;100967.28;;;27.27;26.69
54816;BME280;40715;55.752;37.884;2023-12-07T05:02:51;100968.25;;;27.26;26.92
54816;BME280;40715;55.752;37.884;2023-12-07T05:05:18;100973.25;;;27.19;26.80
54816;BME280;40715;55.752;37.884;2023-12-07T05:07:45;100972.69;;;27.14;26.62
54816;BME280;40715;55.752;37.884;2023-12-07T05:10:12;100968.47;;;27.10;26.86
54816;BME280;40715;55.752;37.884;2023-12-07T05:12:40;100973.16;;;27.08;26.72
54816;BME280;40715;55.752;37.884;2023-12-07T05:15:07;100978.78;;;27.05;26.72
54816;BME280;40715;55.752;37.884;2023-12-07T05:17:35;100980.47;;;27.06;26.92
54816;BME280;40715;55.752;37.884;2023-12-07T05:20:02;100986.66;;;27.08;26.90
54816;BME280;40715;55.752;37.884;2023-12-07T05:22:31;100991.63;;;27.14;26.76
54816;BME280;40715;55.752;37.884;2023-12-07T05:24:58;100992.41;;;27.16;26.42
54816;BME280;40715;55.752;37.884;2023-12-07T05:27:26;100998.00;;;27.26;26.64
54816;BME280;40715;55.752;37.884;2023-12-07T05:29:53;101001.06;;;27.34;26.45
54816;BME280;40715;55.752;37.884;2023-12-07T05:32:20;101000.00;;;27.37;26.38
54816;BME280;40715;55.752;37.884;2023-12-07T05:34:47;100998.59;;;27.44;26.45
54816;BME280;40715;55.752;37.884;2023-12-07T05:37:14;101003.53;;;27.50;26.12
54816;BME280;40715;55.752;37.884;2023-12-07T05:39:40;100999.97;;;27.50;26.30
54816;BME280;40715;55.752;37.884;2023-12-07T05:42:07;101007.13;;;27.51;26.22
54816;BME280;40715;55.752;37.884;2023-12-07T05:44:35;101008.97;;;27.50;26.10
54816;BME280;40715;55.752;37.884;2023-12-07T05:47:02;101011.47;;;27.53;26.19
54816;BME280;40715;55.752;37.884;2023-12-07T05:49:29;101011.47;;;27.53;26.15
54816;BME280;40715;55.752;37.884;2023-12-07T05:51:56;101016.88;;;27.53;26.18
54816;BME280;40715;55.752;37.884;2023-12-07T05:54:23;101016.88;;;27.53;26.09
54816;BME280;40715;55.752;37.884;2023-12-07T05:56:50;101019.66;;;27.52;25.96
54816;BME280;40715;55.752;37.884;2023-12-07T05:59:17;101021.53;;;27.51;26.05
54816;BME280;40715;55.752;37.884;2023-12-07T06:01:44;101018.94;;;27.50;26.19
54816;BME280;40715;55.752;37.884;2023-12-07T06:04:11;101020.66;;;27.51;26.08
54816;BME280;40715;55.752;37.884;2023-12-07T06:06:39;101015.88;;;27.54;26.32
54816;BME280;40715;55.752;37.884;2023-12-07T06:09:07;101006.91;;;27.54;26.20
54816;BME280;40715;55.752;37.884;2023-12-07T06:11:35;101017.41;;;27.59;26.30
54816;BME280;40715;55.752;37.884;2023-12-07T06:14:02;101021.84;;;27.60;26.21
54816;BME280;40715;55.752;37.884;2023-12-07T06:16:30;101023.47;;;27.62;26.08
54816;BME280;40715;55.752;37.884;2023-12-07T06:18:57;101035.03;;;27.64;26.12
54816;BME280;40715;55.752;37.884;2023-12-07T06:21:25;101034.81;;;27.67;26.18
54816;BME280;40715;55.752;37.884;2023-12-07T06:23:54;101032.00;;;27.69;26.10
54816;BME280;40715;55.752;37.884;2023-12-07T06:26:21;101032.00;;;27.69;25.95
54816;BME280;40715;55.752;37.884;2023-12-07T06:28:49;101030.28;;;27.68;25.86
54816;BME280;40715;55.752;37.884;2023-12-07T06:31:16;101041.22;;;27.66;25.91
54816;BME280;40715;55.752;37.884;2023-12-07T06:33:47;101037.00;;;27.62;25.97
54816;BME280;40715;55.752;37.884;2023-12-07T06:36:19;101042.63;;;27.59;25.69
54816;BME280;40715;55.752;37.884;2023-12-07T06:38:47;101041.03;;;27.57;26.00
54816;BME280;40715;55.752;37.884;2023-12-07T06:41:14;101040.03;;;27.58;25.84
54816;BME280;40715;55.752;37.884;2023-12-07T06:43:45;101040.13;;;27.56;25.91
54816;BME280;40715;55.752;37.884;2023-12-07T06:46:12;101038.53;;;27.53;25.65
54816;BME280;40715;55.752;37.884;2023-12-07T06:48:41;101043.06;;;27.53;25.67
54816;BME280;40715;55.752;37.884;2023-12-07T06:51:08;101040.13;;;27.56;25.47
54816;BME280;40715;55.752;37.884;2023-12-07T06:53:35;101042.63;;;27.59;25.29
54816;BME280;40715;55.752;37.884;2023-12-07T06:56:02;101046.09;;;27.61;25.37
54816;BME280;40715;55.752;37.884;2023-12-07T06:58:29;101044.13;;;27.63;25.14
54816;BME280;40715;55.752;37.884;2023-12-07T07:00:57;101038.41;;;27.68;25.14
54816;BME280;40715;55.752;37.884;2023-12-07T07:03:25;101041.75;;;27.71;25.03
54816;BME280;40715;55.752;37.884;2023-12-07T07:05:54;101039.47;;;27.78;25.00
54816;BME280;40715;55.752;37.884;2023-12-07T07:08:22;101043.69;;;27.82;24.83
54816;BME280;40715;55.752;37.884;2023-12-07T07:10:49;101041.59;;;27.86;24.82
54816;BME280;40715;55.752;37.884;2023-12-07T07:13:17;101037.81;;;27.88;24.84
54816;BME280;40715;55.752;37.884;2023-12-07T07:15:46;101040.19;;;27.93;24.93
54816;BME280;40715;55.752;37.884;2023-12-07T07:18:15;101047.22;;;27.96;24.65
54816;BME280;40715;55.752;37.884;2023-12-07T07:20:42;101044.31;;;27.99;24.91
54816;BME280;40715;55.752;37.884;2023-12-07T07:23:10;101048.53;;;28.03;24.69
54816;BME280;40715;55.752;37.884;2023-12-07T07:25:37;101048.31;;;28.06;24.82
54816;BME280;40715;55.752;37.884;2023-12-07T07:28:05;101051.00;;;28.06;24.86
54816;BME280;40715;55.752;37.884;2023-12-07T07:30:34;101043.00;;;28.04;24.97
54816;BME280;40715;55.752;37.884;2023-12-07T07:33:04;101051.00;;;28.06;24.88
54816;BME280;40715;55.752;37.884;2023-12-07T07:35:32;101050.91;;;28.07;25.03
54816;BME280;40715;55.752;37.884;2023-12-07T07:38:00;101049.81;;;28.10;24.93
54816;BME280;40715;55.752;37.884;2023-12-07T07:40:30;101054.38;;;28.10;25.09
54816;BME280;40715;55.752;37.884;2023-12-07T07:42:57;101051.78;;;28.08;24.92
54816;BME280;40715;55.752;37.884;2023-12-07T07:45:28;101050.69;;;28.11;24.68
54816;BME280;40715;55.752;37.884;2023-12-07T07:47:55;101063.03;;;28.15;24.80
54816;BME280;40715;55.752;37.884;2023-12-07T07:50:23;101063.66;;;28.18;24.75
54816;BME280;40715;55.752;37.884;2023-12-07T07:52:50;101061.25;;;28.27;25.06
54816;BME280;40715;55.752;37.884;2023-12-07T07:55:18;101063.38;;;28.34;25.01
54816;BME280;40715;55.752;37.884;2023-12-07T07:57:45;101071.81;;;28.42;24.95
54816;BME280;40715;55.752;37.884;2023-12-07T08:00:13;101065.31;;;28.45;25.10
54816;BME280;40715;55.752;37.884;2023-12-07T08:02:41;101058.78;;;28.48;24.86
54816;BME280;40715;55.752;37.884;2023-12-07T08:05:08;101064.84;;;28.51;24.92
54816;BME280;40715;55.752;37.884;2023-12-07T08:07:36;101071.13;;;28.52;25.01
54816;BME280;40715;55.752;37.884;2023-12-07T08:10:04;101068.19;;;28.55;25.26
54816;BME280;40715;55.752;37.884;2023-12-07T08:12:32;101068.69;;;28.60;24.86
54816;BME280;40715;55.752;37.884;2023-12-07T08:14:59;101070.34;;;28.63;24.77
54816;BME280;40715;55.752;37.884;2023-12-07T08:17:30;101070.09;;;28.66;25.05
54816;BME280;40715;55.752;37.884;2023-12-07T08:19:57;101074.44;;;28.68;25.01
54816;BME280;40715;55.752;37.884;2023-12-07T08:22:26;101079.63;;;28.71;24.63
54816;BME280;40715;55.752;37.884;2023-12-07T08:24:53;101076.06;;;28.71;24.58
54816;BME280;40715;55.752;37.884;2023-12-07T08:27:26;101080.09;;;28.65;24.47
54816;BME280;40715;55.752;37.884;2023-12-07T08:29:53;101070.44;;;28.61;24.62
54816;BME280;40715;55.752;37.884;2023-12-07T08:32:20;101071.75;;;28.55;24.53
54816;BME280;40715;55.752;37.884;2023-12-07T08:34:48;101072.13;;;28.51;24.45
54816;BME280;40715;55.752;37.884;2023-12-07T08:37:15;101067.03;;;28.46;24.49
54816;BME280;40715;55.752;37.884;2023-12-07T08:39:43;101073.69;;;28.42;24.57
54816;BME280;40715;55.752;37.884;2023-12-07T08:42:10;101063.06;;;28.39;24.50
54816;BME280;40715;55.752;37.884;2023-12-07T08:44:37;101061.56;;;28.35;24.45
54816;BME280;40715;55.752;37.884;2023-12-07T08:47:05;101056.63;;;28.40;24.52
54816;BME280;40715;55.752;37.884;2023-12-07T08:49:32;101060.00;;;28.44;24.53
54816;BME280;40715;55.752;37.884;2023-12-07T08:51:59;101059.41;;;28.51;24.42
54816;BME280;40715;55.752;37.884;2023-12-07T08:54:35;101070.34;;;28.63;24.41
54816;BME280;40715;55.752;37.884;2023-12-07T08:57:03;101068.19;;;28.55;24.59
54816;BME280;40715;55.752;37.884;2023-12-07T08:59:31;101060.06;;;28.55;24.45
54816;BME280;40715;55.752;37.884;2023-12-07T09:01:58;101056.13;;;28.59;24.70
54816;BME280;40715;55.752;37.884;2023-12-07T09:04:26;101053.31;;;28.61;24.41
54816;BME280;40715;55.752;37.884;2023-12-07T09:06:54;101052.13;;;28.65;24.41
54816;BME280;40715;55.752;37.884;2023-12-07T09:09:21;101052.97;;;28.65;24.47
54816;BME280;40715;55.752;37.884;2023-12-07T09:11:49;101049.19;;;28.68;24.46
54816;BME280;40715;55.752;37.884;2023-12-07T09:14:16;101043.88;;;28.66;24.46
54816;BME280;40715;55.752;37.884;2023-12-07T09:16:46;101045.59;;;28.67;24.42
54816;BME280;40715;55.752;37.884;2023-12-07T09:19:13;101055.34;;;28.70;23.94
54816;BME280;40715;55.752;37.884;2023-12-07T09:21:41;101056.31;;;28.69;24.21
54816;BME280;40715;55.752;37.884;2023-12-07T09:24:08;101059.03;;;28.69;24.13
54816;BME280;40715;55.752;37.884;2023-12-07T09:26:36;101060.16;;;28.66;24.21
54816;BME280;40715;55.752;37.884;2023-12-07T09:29:03;101057.31;;;28.68;24.14
54816;BME280;40715;55.752;37.884;2023-12-07T09:31:31;101050.03;;;28.68;24.32
54816;BME280;40715;55.752;37.884;2023-12-07T09:33:58;101052.97;;;28.65;24.25
54816;BME280;40715;55.752;37.884;2023-12-07T09:36:37;101040.41;;;28.64;24.36
54816;BME280;40715;55.752;37.884;2023-12-07T09:39:04;101053.09;;;28.64;24.33
54816;BME280;40715;55.752;37.884;2023-12-07T09:41:33;101056.78;;;28.63;24.45
54816;BME280;40715;55.752;37.884;2023-12-07T09:44:00;101055.94;;;28.62;24.36
54816;BME280;40715;55.752;37.884;2023-12-07T09:46:28;101055.03;;;28.62;24.41
54816;BME280;40715;55.752;37.884;2023-12-07T09:48:57;101057.63;;;28.63;24.47
54816;BME280;40715;55.752;37.884;2023-12-07T09:51:25;101055.94;;;28.62;24.41
54816;BME280;40715;55.752;37.884;2023-12-07T09:53:56;101057.00;;;28.59;24.52
54816;BME280;40715;55.752;37.884;2023-12-07T09:56:23;101049.84;;;28.58;24.35
54816;BME280;40715;55.752;37.884;2023-12-07T09:58:51;101048.00;;;28.59;24.25
54816;BME280;40715;55.752;37.884;2023-12-07T10:01:18;101045.28;;;28.59;24.39
54816;BME280;40715;55.752;37.884;2023-12-07T10:03:45;101047.13;;;28.58;24.43
54816;BME280;40715;55.752;37.884;2023-12-07T10:06:15;101047.47;;;28.54;24.25
54816;BME280;40715;55.752;37.884;2023-12-07T10:08:42;101046.09;;;28.48;24.06
54816;BME280;40715;55.752;37.884;2023-12-07T10:11:14;101046.56;;;28.42;23.95
54816;BME280;40715;55.752;37.884;2023-12-07T10:13:42;101049.59;;;28.37;23.96
54816;BME280;40715;55.752;37.884;2023-12-07T10:16:10;101051.81;;;28.32;24.00
54816;BME280;40715;55.752;37.884;2023-12-07T10:18:39;101047.47;;;28.30;23.83
54816;BME280;40715;55.752;37.884;2023-12-07T10:21:09;101047.59;;;28.28;23.77
54816;BME280;40715;55.752;37.884;2023-12-07T10:23:37;101038.06;;;28.22;23.92
54816;BME280;40715;55.752;37.884;2023-12-07T10:26:07;101048.16;;;28.20;23.73
54816;BME280;40715;55.752;37.884;2023-12-07T10:28:35;101046.44;;;28.19;23.80
54816;BME280;40715;55.752;37.884;2023-12-07T10:31:04;101048.25;;;28.19;23.91
54816;BME280;40715;55.752;37.884;2023-12-07T10:33:35;101052.81;;;28.18;24.02
54816;BME280;40715;55.752;37.884;2023-12-07T10:36:03;101052.28;;;28.13;23.83
54816;BME280;40715;55.752;37.884;2023-12-07T10:38:31;101054.16;;;28.13;23.85
54816;BME280;40715;55.752;37.884;2023-12-07T10:41:06;101055.13;;;28.12;23.95
54816;BME280;40715;55.752;37.884;2023-12-07T10:43:37;101054.50;;;28.08;24.08
54816;BME280;40715;55.752;37.884;2023-12-07T10:46:05;101057.19;;;28.08;23.99
54816;BME280;40715;55.752;37.884;2023-12-07T10:48:34;101053.59;;;28.07;23.97
54816;BME280;40715;55.752;37.884;2023-12-07T10:51:07;101052.88;;;28.05;23.96
54816;BME280;40715;55.752;37.884;2023-12-07T10:53:40;101053.94;;;28.03;24.00
54816;BME280;40715;55.752;37.884;2023-12-07T10:56:35;101049.72;;;27.99;23.86
54816;BME280;40715;55.752;37.884;2023-12-07T10:59:00;101065.97;;;27.99;23.70
54816;BME280;40715;55.752;37.884;2023-12-07T11:01:28;101059.25;;;27.92;23.71
54816;BME280;40715;55.752;37.884;2023-12-07T11:03:58;101054.84;;;27.90;23.80
54816;BME280;40715;55.752;37.884;2023-12-07T11:06:25;101061.22;;;27.89;23.78
54816;BME280;40715;55.752;37.884;2023-12-07T11:08:58;101058.75;;;27.86;23.71
54816;BME280;40715;55.752;37.884;2023-12-07T11:11:34;101059.81;;;27.84;23.72
54816;BME280;40715;55.752;37.884;2023-12-07T11:14:03;101052.97;;;28.41;23.09
54816;BME280;40715;55.752;37.884;2023-12-07T11:16:36;101061.34;;;27.88;23.62
54816;BME280;40715;55.752;37.884;2023-12-07T11:22:00;101073.16;;;27.74;23.73
54816;BME280;40715;55.752;37.884;2023-12-07T11:24:27;101065.03;;;27.74;23.58
54816;BME280;40715;55.752;37.884;2023-12-07T11:26:55;101074.66;;;27.78;23.65
54816;BME280;40715;55.752;37.884;2023-12-07T11:29:28;101072.94;;;27.77;23.79
54816;BME280;40715;55.752;37.884;2023-12-07T11:31:57;101071.75;;;27.81;23.54
54816;BME280;40715;55.752;37.884;2023-12-07T11:34:38;101065.56;;;27.92;23.57
54816;BME280;40715;55.752;37.884;2023-12-07T11:37:07;101067.84;;;27.98;23.55
54816;BME280;40715;55.752;37.884;2023-12-07T11:39:41;101062.19;;;28.01;23.43
54816;BME280;40715;55.752;37.884;2023-12-07T11:42:19;101063.81;;;28.04;23.45
54816;BME280;40715;55.752;37.884;2023-12-07T11:44:48;101069.84;;;28.07;23.29
54816;BME280;40715;55.752;37.884;2023-12-07T11:47:20;101069.00;;;28.07;23.46
54816;BME280;40715;55.752;37.884;2023-12-07T11:49:48;101070.09;;;28.04;23.44
54816;BME280;40715;55.752;37.884;2023-12-07T11:52:17;101071.09;;;28.03;23.42
54816;BME280;40715;55.752;37.884;2023-12-07T11:54:48;101064.03;;;28.01;23.55
54816;BME280;40715;55.752;37.884;2023-12-07T11:57:17;101070.63;;;27.97;23.67
54816;BME280;40715;55.752;37.884;2023-12-07T11:59:45;101072.19;;;28.01;23.54
54816;BME280;40715;55.752;37.884;2023-12-07T12:02:13;101063.59;;;28.07;23.38
54816;BME280;40715;55.752;37.884;2023-12-07T12:04:41;101071.25;;;28.13;23.58
54816;BME280;40715;55.752;37.884;2023-12-07T12:07:09;101070.28;;;28.14;23.58
54816;BME280;40715;55.752;37.884;2023-12-07T12:09:36;101075.59;;;28.16;23.30
54816;BME280;40715;55.752;37.884;2023-12-07T12:12:04;101062.38;;;28.11;23.33
54816;BME280;40715;55.752;37.884;2023-12-07T12:14:31;101058.16;;;28.07;22.99
54816;BME280;40715;55.752;37.884;2023-12-07T12:16:58;101073.47;;;28.08;23.09
54816;BME280;40715;55.752;37.884;2023-12-07T12:19:25;101068.38;;;28.03;23.26
54816;BME280;40715;55.752;37.884;2023-12-07T12:21:57;101070.22;;;28.03;23.22
54816;BME280;40715;55.752;37.884;2023-12-07T12:24:26;101075.75;;;28.01;23.43
54816;BME280;40715;55.752;37.884;2023-12-07T12:26:53;101073.13;;;28.00;23.52
54816;BME280;40715;55.752;37.884;2023-12-07T12:29:21;101065.88;;;28.00;23.74
54816;BME280;40715;55.752;37.884;2023-12-07T12:31:53;101069.84;;;28.07;23.74
54816;BME280;40715;55.752;37.884;2023-12-07T12:34:24;101060.75;;;28.09;23.86
54816;BME280;40715;55.752;37.884;2023-12-07T12:36:55;101072.50;;;28.09;23.73
54816;BME280;40715;55.752;37.884;2023-12-07T12:39:30;101068.03;;;28.08;23.51
54816;BME280;40715;55.752;37.884;2023-12-07T12:41:58;101069.53;;;28.12;23.45
54816;BME280;40715;55.752;37.884;2023-12-07T12:44:27;101073.47;;;28.08;23.67
54816;BME280;40715;55.752;37.884;2023-12-07T12:47:00;101073.00;;;28.14;23.72
54816;BME280;40715;55.752;37.884;2023-12-07T12:49:37;101077.75;;;28.23;23.54